sensor_id;sensor_type;location;lat;lon;timestamp;temperature;humidity
83283;DHT22;73190;50.780;5.658;2023-12-20T00:00:28;9.60;91.30
83283;DHT22;73190;50.780;5.658;2023-12-20T00:02:55;9.60;90.80
83283;DHT22;73190;50.780;5.658;2023-12-20T00:05:22;9.50;91.00
83283;DHT22;73190;50.780;5.658;2023-12-20T00:07:49;9.30;90.80
83283;DHT22;73190;50.780;5.658;2023-12-20T00:10:16;9.20;90.60
83283;DHT22;73190;50.780;5.658;2023-12-20T00:12:43;9.20;90.60
83283;DHT22;73190;50.780;5.658;2023-12-20T00:15:09;9.10;90.40
83283;DHT22;73190;50.780;5.658;2023-12-20T00:17:36;9.00;91.00
83283;DHT22;73190;50.780;5.658;2023-12-20T00:20:03;9.00;90.80
83283;DHT22;73190;50.780;5.658;2023-12-20T00:22:32;8.80;91.10
83283;DHT22;73190;50.780;5.658;2023-12-20T00:24:58;8.70;90.60
83283;DHT22;73190;50.780;5.658;2023-12-20T00:27:25;8.70;90.60
83283;DHT22;73190;50.780;5.658;2023-12-20T00:29:52;8.60;90.70
83283;DHT22;73190;50.780;5.658;2023-12-20T00:32:19;8.50;90.70
83283;DHT22;73190;50.780;5.658;2023-12-20T00:34:46;8.40;90.90
83283;DHT22;73190;50.780;5.658;2023-12-20T00:37:12;8.40;90.70
83283;DHT22;73190;50.780;5.658;2023-12-20T00:39:39;8.40;90.70
83283;DHT22;73190;50.780;5.658;2023-12-20T00:42:06;8.30;90.50
83283;DHT22;73190;50.780;5.658;2023-12-20T00:44:33;8.40;90.30
83283;DHT22;73190;50.780;5.658;2023-12-20T00:47:01;8.30;90.40
83283;DHT22;73190;50.780;5.658;2023-12-20T00:49:28;8.40;90.10
83283;DHT22;73190;50.780;5.658;2023-12-20T00:51:54;8.40;89.50
83283;DHT22;73190;50.780;5.658;2023-12-20T00:54:21;8.30;90.60
83283;DHT22;73190;50.780;5.658;2023-12-20T00:56:48;8.30;89.80
83283;DHT22;73190;50.780;5.658;2023-12-20T00:59:16;8.10;90.60
83283;DHT22;73190;50.780;5.658;2023-12-20T01:01:44;8.20;90.70
83283;DHT22;73190;50.780;5.658;2023-12-20T01:04:11;8.20;90.20
83283;DHT22;73190;50.780;5.658;2023-12-20T01:06:38;8.20;90.20
83283;DHT22;73190;50.780;5.658;2023-12-20T01:09:05;8.10;90.70
83283;DHT22;73190;50.780;5.658;2023-12-20T01:11:32;8.20;90.70
83283;DHT22;73190;50.780;5.658;2023-12-20T01:13:58;8.10;90.40
83283;DHT22;73190;50.780;5.658;2023-12-20T01:16:25;8.10;90.20
83283;DHT22;73190;50.780;5.658;2023-12-20T01:18:52;8.00;90.40
83283;DHT22;73190;50.780;5.658;2023-12-20T01:21:19;7.90;90.70
83283;DHT22;73190;50.780;5.658;2023-12-20T01:23:47;8.10;90.20
83283;DHT22;73190;50.780;5.658;2023-12-20T01:26:14;8.00;90.00
83283;DHT22;73190;50.780;5.658;2023-12-20T01:28:41;7.90;90.60
83283;DHT22;73190;50.780;5.658;2023-12-20T01:31:08;7.70;90.40
83283;DHT22;73190;50.780;5.658;2023-12-20T01:33:35;7.70;90.80
83283;DHT22;73190;50.780;5.658;2023-12-20T01:36:02;7.70;91.20
83283;DHT22;73190;50.780;5.658;2023-12-20T01:38:29;7.70;90.50
83283;DHT22;73190;50.780;5.658;2023-12-20T01:40:56;7.80;90.70
83283;DHT22;73190;50.780;5.658;2023-12-20T01:43:23;7.70;90.50
83283;DHT22;73190;50.780;5.658;2023-12-20T01:45:49;7.80;90.70
83283;DHT22;73190;50.780;5.658;2023-12-20T01:48:16;7.70;90.40
83283;DHT22;73190;50.780;5.658;2023-12-20T01:50:43;7.70;91.10
83283;DHT22;73190;50.780;5.658;2023-12-20T01:53:12;7.70;91.30
83283;DHT22;73190;50.780;5.658;2023-12-20T01:55:39;7.80;91.10
83283;DHT22;73190;50.780;5.658;2023-12-20T01:58:09;8.00;90.00
83283;DHT22;73190;50.780;5.658;2023-12-20T02:00:37;8.10;89.50
83283;DHT22;73190;50.780;5.658;2023-12-20T02:03:04;7.90;90.00
83283;DHT22;73190;50.780;5.658;2023-12-20T02:05:31;8.00;90.20
83283;DHT22;73190;50.780;5.658;2023-12-20T02:07:58;7.70;90.50
83283;DHT22;73190;50.780;5.658;2023-12-20T02:10:25;7.60;90.80
83283;DHT22;73190;50.780;5.658;2023-12-20T02:12:52;7.60;90.70
83283;DHT22;73190;50.780;5.658;2023-12-20T02:15:20;7.70;90.00
83283;DHT22;73190;50.780;5.658;2023-12-20T02:17:47;7.50;90.30
83283;DHT22;73190;50.780;5.658;2023-12-20T02:20:14;7.50;90.80
83283;DHT22;73190;50.780;5.658;2023-12-20T02:22:41;7.40;90.70
83283;DHT22;73190;50.780;5.658;2023-12-20T02:25:08;7.50;90.50
83283;DHT22;73190;50.780;5.658;2023-12-20T02:27:34;7.60;90.20
83283;DHT22;73190;50.780;5.658;2023-12-20T02:30:01;7.50;90.30
83283;DHT22;73190;50.780;5.658;2023-12-20T02:32:29;7.50;90.50
83283;DHT22;73190;50.780;5.658;2023-12-20T02:34:56;7.40;90.60
83283;DHT22;73190;50.780;5.658;2023-12-20T02:37:23;7.40;90.70
83283;DHT22;73190;50.780;5.658;2023-12-20T02:39:50;7.30;91.00
83283;DHT22;73190;50.780;5.658;2023-12-20T02:42:18;7.20;90.90
83283;DHT22;73190;50.780;5.658;2023-12-20T02:44:44;7.30;90.90
83283;DHT22;73190;50.780;5.658;2023-12-20T02:47:11;7.40;90.60
83283;DHT22;73190;50.780;5.658;2023-12-20T02:49:38;7.60;90.10
83283;DHT22;73190;50.780;5.658;2023-12-20T02:52:05;7.50;90.30
83283;DHT22;73190;50.780;5.658;2023-12-20T02:54:32;7.40;90.10
83283;DHT22;73190;50.780;5.658;2023-12-20T02:56:59;7.30;90.30
83283;DHT22;73190;50.780;5.658;2023-12-20T02:59:25;7.40;90.20
83283;DHT22;73190;50.780;5.658;2023-12-20T03:01:52;7.30;89.60
83283;DHT22;73190;50.780;5.658;2023-12-20T03:04:19;7.30;90.20
83283;DHT22;73190;50.780;5.658;2023-12-20T03:06:46;7.30;90.00
83283;DHT22;73190;50.780;5.658;2023-12-20T03:09:13;7.30;90.20
83283;DHT22;73190;50.780;5.658;2023-12-20T03:11:40;7.20;90.10
83283;DHT22;73190;50.780;5.658;2023-12-20T03:14:06;7.10;90.50
83283;DHT22;73190;50.780;5.658;2023-12-20T03:16:33;7.10;90.70
83283;DHT22;73190;50.780;5.658;2023-12-20T03:19:00;7.00;90.40
83283;DHT22;73190;50.780;5.658;2023-12-20T03:21:27;6.90;90.60
83283;DHT22;73190;50.780;5.658;2023-12-20T03:23:54;6.90;90.60
83283;DHT22;73190;50.780;5.658;2023-12-20T03:26:21;6.80;91.00
83283;DHT22;73190;50.780;5.658;2023-12-20T03:28:48;6.90;90.80
83283;DHT22;73190;50.780;5.658;2023-12-20T03:31:15;7.00;90.80
83283;DHT22;73190;50.780;5.658;2023-12-20T03:33:42;6.90;90.60
83283;DHT22;73190;50.780;5.658;2023-12-20T03:36:09;6.90;91.10
83283;DHT22;73190;50.780;5.658;2023-12-20T03:38:36;7.00;90.60
83283;DHT22;73190;50.780;5.658;2023-12-20T03:41:03;7.00;90.30
83283;DHT22;73190;50.780;5.658;2023-12-20T03:43:29;7.00;90.60
83283;DHT22;73190;50.780;5.658;2023-12-20T03:45:57;6.90;91.20
83283;DHT22;73190;50.780;5.658;2023-12-20T03:48:24;7.10;90.80
83283;DHT22;73190;50.780;5.658;2023-12-20T03:50:51;7.10;90.60
83283;DHT22;73190;50.780;5.658;2023-12-20T03:53:19;7.20;90.20
83283;DHT22;73190;50.780;5.658;2023-12-20T03:55:46;7.10;90.20
83283;DHT22;73190;50.780;5.658;2023-12-20T03:58:12;7.10;90.70
83283;DHT22;73190;50.780;5.658;2023-12-20T04:00:39;7.20;90.20
83283;DHT22;73190;50.780;5.658;2023-12-20T04:03:06;7.00;90.40
83283;DHT22;73190;50.780;5.658;2023-12-20T04:05:33;7.10;90.50
83283;DHT22;73190;50.780;5.658;2023-12-20T04:08:01;7.20;90.40
83283;DHT22;73190;50.780;5.658;2023-12-20T04:10:28;7.20;90.70
83283;DHT22;73190;50.780;5.658;2023-12-20T04:12:55;7.40;89.20
83283;DHT22;73190;50.780;5.658;2023-12-20T04:15:22;7.30;90.00
83283;DHT22;73190;50.780;5.658;2023-12-20T04:17:48;7.40;90.10
83283;DHT22;73190;50.780;5.658;2023-12-20T04:20:15;7.40;89.40
83283;DHT22;73190;50.780;5.658;2023-12-20T04:22:42;7.30;89.40
83283;DHT22;73190;50.780;5.658;2023-12-20T04:25:09;7.40;90.10
83283;DHT22;73190;50.780;5.658;2023-12-20T04:27:36;7.40;90.00
83283;DHT22;73190;50.780;5.658;2023-12-20T04:30:02;7.50;89.20
83283;DHT22;73190;50.780;5.658;2023-12-20T04:32:29;7.50;89.30
83283;DHT22;73190;50.780;5.658;2023-12-20T04:34:57;7.40;89.60
83283;DHT22;73190;50.780;5.658;2023-12-20T04:37:24;7.50;90.00
83283;DHT22;73190;50.780;5.658;2023-12-20T04:39:51;7.50;89.80
83283;DHT22;73190;50.780;5.658;2023-12-20T04:42:18;7.50;89.70
83283;DHT22;73190;50.780;5.658;2023-12-20T04:44:44;7.60;89.00
83283;DHT22;73190;50.780;5.658;2023-12-20T04:47:11;7.60;88.70
83283;DHT22;73190;50.780;5.658;2023-12-20T04:49:38;7.40;89.00
83283;DHT22;73190;50.780;5.658;2023-12-20T04:52:05;7.20;90.00
83283;DHT22;73190;50.780;5.658;2023-12-20T04:54:32;7.10;90.50
83283;DHT22;73190;50.780;5.658;2023-12-20T04:56:59;7.20;90.50
83283;DHT22;73190;50.780;5.658;2023-12-20T04:59:25;7.40;90.20
83283;DHT22;73190;50.780;5.658;2023-12-20T05:01:52;7.50;89.80
83283;DHT22;73190;50.780;5.658;2023-12-20T05:04:19;7.40;89.70
83283;DHT22;73190;50.780;5.658;2023-12-20T05:06:46;7.20;90.20
83283;DHT22;73190;50.780;5.658;2023-12-20T05:09:13;7.30;90.00
83283;DHT22;73190;50.780;5.658;2023-12-20T05:11:40;7.20;90.00
83283;DHT22;73190;50.780;5.658;2023-12-20T05:14:06;7.30;90.00
83283;DHT22;73190;50.780;5.658;2023-12-20T05:16:33;7.30;89.30
83283;DHT22;73190;50.780;5.658;2023-12-20T05:19:00;7.10;90.30
83283;DHT22;73190;50.780;5.658;2023-12-20T05:21:28;7.10;90.20
83283;DHT22;73190;50.780;5.658;2023-12-20T05:23:56;7.30;90.10
83283;DHT22;73190;50.780;5.658;2023-12-20T05:26:24;7.40;89.70
83283;DHT22;73190;50.780;5.658;2023-12-20T05:28:51;7.30;88.80
83283;DHT22;73190;50.780;5.658;2023-12-20T05:31:18;7.20;89.80
83283;DHT22;73190;50.780;5.658;2023-12-20T05:33:45;7.10;89.60
83283;DHT22;73190;50.780;5.658;2023-12-20T05:36:12;7.10;90.10
83283;DHT22;73190;50.780;5.658;2023-12-20T05:38:41;7.30;89.30
83283;DHT22;73190;50.780;5.658;2023-12-20T05:41:08;7.40;88.50
83283;DHT22;73190;50.780;5.658;2023-12-20T05:43:35;7.50;88.10
83283;DHT22;73190;50.780;5.658;2023-12-20T05:46:01;7.40;88.10
83283;DHT22;73190;50.780;5.658;2023-12-20T05:48:28;7.30;89.00
83283;DHT22;73190;50.780;5.658;2023-12-20T05:50:55;7.40;88.10
83283;DHT22;73190;50.780;5.658;2023-12-20T05:53:22;7.40;89.10
83283;DHT22;73190;50.780;5.658;2023-12-20T05:55:49;7.30;88.60
83283;DHT22;73190;50.780;5.658;2023-12-20T05:58:16;7.30;89.20
83283;DHT22;73190;50.780;5.658;2023-12-20T06:00:42;7.10;90.00
83283;DHT22;73190;50.780;5.658;2023-12-20T06:03:09;7.20;89.10
83283;DHT22;73190;50.780;5.658;2023-12-20T06:05:36;7.20;88.80
83283;DHT22;73190;50.780;5.658;2023-12-20T06:08:03;7.10;89.30
83283;DHT22;73190;50.780;5.658;2023-12-20T06:10:30;7.10;89.50
83283;DHT22;73190;50.780;5.658;2023-12-20T06:12:57;7.20;89.40
83283;DHT22;73190;50.780;5.658;2023-12-20T06:15:25;7.30;88.80
83283;DHT22;73190;50.780;5.658;2023-12-20T06:17:52;7.20;87.80
83283;DHT22;73190;50.780;5.658;2023-12-20T06:20:19;7.20;88.10
83283;DHT22;73190;50.780;5.658;2023-12-20T06:22:46;7.10;89.10
83283;DHT22;73190;50.780;5.658;2023-12-20T06:25:13;7.00;88.80
83283;DHT22;73190;50.780;5.658;2023-12-20T06:27:40;6.90;88.90
83283;DHT22;73190;50.780;5.658;2023-12-20T06:30:07;7.00;89.10
83283;DHT22;73190;50.780;5.658;2023-12-20T06:32:37;7.00;88.50
83283;DHT22;73190;50.780;5.658;2023-12-20T06:35:05;6.90;88.40
83283;DHT22;73190;50.780;5.658;2023-12-20T06:37:32;6.70;89.70
83283;DHT22;73190;50.780;5.658;2023-12-20T06:39:59;6.80;89.80
83283;DHT22;73190;50.780;5.658;2023-12-20T06:42:26;6.60;89.90
83283;DHT22;73190;50.780;5.658;2023-12-20T06:44:53;6.70;89.80
83283;DHT22;73190;50.780;5.658;2023-12-20T06:47:20;6.80;89.50
83283;DHT22;73190;50.780;5.658;2023-12-20T06:49:46;6.90;88.70
83283;DHT22;73190;50.780;5.658;2023-12-20T06:52:14;6.80;89.20
83283;DHT22;73190;50.780;5.658;2023-12-20T06:54:40;6.80;89.10
83283;DHT22;73190;50.780;5.658;2023-12-20T06:57:08;6.90;90.00
83283;DHT22;73190;50.780;5.658;2023-12-20T06:59:41;6.70;89.00
83283;DHT22;73190;50.780;5.658;2023-12-20T07:02:08;6.70;89.80
83283;DHT22;73190;50.780;5.658;2023-12-20T07:04:39;6.80;89.30
83283;DHT22;73190;50.780;5.658;2023-12-20T07:07:03;6.90;89.50
83283;DHT22;73190;50.780;5.658;2023-12-20T07:09:30;6.80;90.00
83283;DHT22;73190;50.780;5.658;2023-12-20T07:11:59;6.90;89.60
83283;DHT22;73190;50.780;5.658;2023-12-20T07:14:26;6.80;90.10
83283;DHT22;73190;50.780;5.658;2023-12-20T07:16:53;6.70;90.50
83283;DHT22;73190;50.780;5.658;2023-12-20T07:19:20;6.80;90.20
83283;DHT22;73190;50.780;5.658;2023-12-20T07:21:47;6.90;90.00
83283;DHT22;73190;50.780;5.658;2023-12-20T07:24:14;7.10;89.70
83283;DHT22;73190;50.780;5.658;2023-12-20T07:26:41;7.10;88.50
83283;DHT22;73190;50.780;5.658;2023-12-20T07:29:08;7.20;89.00
83283;DHT22;73190;50.780;5.658;2023-12-20T07:31:35;7.10;88.90
83283;DHT22;73190;50.780;5.658;2023-12-20T07:34:02;7.10;88.70
83283;DHT22;73190;50.780;5.658;2023-12-20T07:36:29;7.00;89.00
83283;DHT22;73190;50.780;5.658;2023-12-20T07:38:56;7.10;88.70
83283;DHT22;73190;50.780;5.658;2023-12-20T07:41:23;7.20;88.20
83283;DHT22;73190;50.780;5.658;2023-12-20T07:43:49;7.20;88.10
83283;DHT22;73190;50.780;5.658;2023-12-20T07:46:17;7.20;87.90
83283;DHT22;73190;50.780;5.658;2023-12-20T07:48:44;7.00;88.60
83283;DHT22;73190;50.780;5.658;2023-12-20T07:51:12;6.80;88.50
83283;DHT22;73190;50.780;5.658;2023-12-20T07:53:39;6.80;89.10
83283;DHT22;73190;50.780;5.658;2023-12-20T07:56:27;6.70;89.10
83283;DHT22;73190;50.780;5.658;2023-12-20T07:58:34;6.70;90.00
83283;DHT22;73190;50.780;5.658;2023-12-20T08:01:01;6.90;89.50
83283;DHT22;73190;50.780;5.658;2023-12-20T08:03:27;6.90;89.00
83283;DHT22;73190;50.780;5.658;2023-12-20T08:05:54;6.80;88.80
83283;DHT22;73190;50.780;5.658;2023-12-20T08:08:22;6.70;89.60
83283;DHT22;73190;50.780;5.658;2023-12-20T08:10:49;6.80;89.30
83283;DHT22;73190;50.780;5.658;2023-12-20T08:13:16;6.90;88.90
83283;DHT22;73190;50.780;5.658;2023-12-20T08:15:42;6.80;88.40
83283;DHT22;73190;50.780;5.658;2023-12-20T08:18:09;6.80;88.90
83283;DHT22;73190;50.780;5.658;2023-12-20T08:20:37;6.80;88.60
83283;DHT22;73190;50.780;5.658;2023-12-20T08:23:03;7.00;88.60
83283;DHT22;73190;50.780;5.658;2023-12-20T08:25:30;7.10;88.00
83283;DHT22;73190;50.780;5.658;2023-12-20T08:27:57;6.90;87.90
83283;DHT22;73190;50.780;5.658;2023-12-20T08:30:24;6.60;89.00
83283;DHT22;73190;50.780;5.658;2023-12-20T08:32:51;6.60;89.30
83283;DHT22;73190;50.780;5.658;2023-12-20T08:35:18;6.60;89.70
83283;DHT22;73190;50.780;5.658;2023-12-20T08:37:46;6.80;88.90
83283;DHT22;73190;50.780;5.658;2023-12-20T08:40:19;6.90;88.40
83283;DHT22;73190;50.780;5.658;2023-12-20T08:42:51;6.80;88.20
83283;DHT22;73190;50.780;5.658;2023-12-20T08:45:18;6.70;88.90
83283;DHT22;73190;50.780;5.658;2023-12-20T08:47:45;6.60;89.20
83283;DHT22;73190;50.780;5.658;2023-12-20T08:50:12;6.70;90.00
83283;DHT22;73190;50.780;5.658;2023-12-20T08:52:39;6.90;88.60
83283;DHT22;73190;50.780;5.658;2023-12-20T08:55:07;6.90;88.70
83283;DHT22;73190;50.780;5.658;2023-12-20T08:57:34;6.80;88.90
83283;DHT22;73190;50.780;5.658;2023-12-20T09:00:00;7.00;89.00
83283;DHT22;73190;50.780;5.658;2023-12-20T09:02:28;7.00;87.80
83283;DHT22;73190;50.780;5.658;2023-12-20T09:04:54;7.10;87.90
83283;DHT22;73190;50.780;5.658;2023-12-20T09:07:22;7.10;88.00
83283;DHT22;73190;50.780;5.658;2023-12-20T09:09:49;7.10;86.80
83283;DHT22;73190;50.780;5.658;2023-12-20T09:12:17;7.30;87.10
83283;DHT22;73190;50.780;5.658;2023-12-20T09:14:45;7.40;86.30
83283;DHT22;73190;50.780;5.658;2023-12-20T09:17:11;7.40;86.20
83283;DHT22;73190;50.780;5.658;2023-12-20T09:19:38;7.10;87.30
83283;DHT22;73190;50.780;5.658;2023-12-20T09:22:05;7.20;87.30
83283;DHT22;73190;50.780;5.658;2023-12-20T09:24:33;7.20;87.10
83283;DHT22;73190;50.780;5.658;2023-12-20T09:27:00;7.30;86.80
83283;DHT22;73190;50.780;5.658;2023-12-20T09:29:27;7.20;87.80
83283;DHT22;73190;50.780;5.658;2023-12-20T09:31:54;7.30;87.10
83283;DHT22;73190;50.780;5.658;2023-12-20T09:34:20;7.30;87.50
83283;DHT22;73190;50.780;5.658;2023-12-20T09:36:47;7.40;86.00
83283;DHT22;73190;50.780;5.658;2023-12-20T09:39:15;7.40;86.40
83283;DHT22;73190;50.780;5.658;2023-12-20T09:41:44;7.60;86.60
83283;DHT22;73190;50.780;5.658;2023-12-20T09:44:13;7.90;85.30
83283;DHT22;73190;50.780;5.658;2023-12-20T09:46:45;8.30;84.20
83283;DHT22;73190;50.780;5.658;2023-12-20T09:49:09;8.40;82.40
83283;DHT22;73190;50.780;5.658;2023-12-20T09:51:36;8.40;82.10
83283;DHT22;73190;50.780;5.658;2023-12-20T09:54:03;8.30;81.80
83283;DHT22;73190;50.780;5.658;2023-12-20T09:56:30;8.00;83.20
83283;DHT22;73190;50.780;5.658;2023-12-20T09:58:59;8.10;83.20
83283;DHT22;73190;50.780;5.658;2023-12-20T10:01:26;8.20;82.90
83283;DHT22;73190;50.780;5.658;2023-12-20T10:03:54;8.30;82.30
83283;DHT22;73190;50.780;5.658;2023-12-20T10:06:21;8.30;82.10
83283;DHT22;73190;50.780;5.658;2023-12-20T10:08:48;8.20;82.50
83283;DHT22;73190;50.780;5.658;2023-12-20T10:11:15;8.20;82.90
83283;DHT22;73190;50.780;5.658;2023-12-20T10:13:42;8.80;81.30
83283;DHT22;73190;50.780;5.658;2023-12-20T10:16:10;9.90;77.60
83283;DHT22;73190;50.780;5.658;2023-12-20T10:18:36;10.70;74.60
83283;DHT22;73190;50.780;5.658;2023-12-20T10:21:03;11.20;70.40
83283;DHT22;73190;50.780;5.658;2023-12-20T10:23:30;11.70;68.60
83283;DHT22;73190;50.780;5.658;2023-12-20T10:26:02;12.20;67.60
83283;DHT22;73190;50.780;5.658;2023-12-20T10:28:26;12.90;65.40
83283;DHT22;73190;50.780;5.658;2023-12-20T10:30:56;13.60;61.70
83283;DHT22;73190;50.780;5.658;2023-12-20T10:33:28;13.50;60.90
83283;DHT22;73190;50.780;5.658;2023-12-20T10:35:51;13.10;61.70
83283;DHT22;73190;50.780;5.658;2023-12-20T10:38:19;13.40;62.60
83283;DHT22;73190;50.780;5.658;2023-12-20T10:40:48;12.90;62.20
83283;DHT22;73190;50.780;5.658;2023-12-20T10:43:15;12.20;65.60
83283;DHT22;73190;50.780;5.658;2023-12-20T10:45:43;11.70;67.00
83283;DHT22;73190;50.780;5.658;2023-12-20T10:48:10;11.20;69.30
83283;DHT22;73190;50.780;5.658;2023-12-20T10:50:38;10.50;72.30
83283;DHT22;73190;50.780;5.658;2023-12-20T10:53:06;10.20;73.80
83283;DHT22;73190;50.780;5.658;2023-12-20T10:55:33;9.90;74.80
83283;DHT22;73190;50.780;5.658;2023-12-20T10:58:00;9.70;75.80
83283;DHT22;73190;50.780;5.658;2023-12-20T11:00:28;9.70;76.10
83283;DHT22;73190;50.780;5.658;2023-12-20T11:02:57;9.60;77.10
83283;DHT22;73190;50.780;5.658;2023-12-20T11:08:12;9.20;79.20
83283;DHT22;73190;50.780;5.658;2023-12-20T11:13:32;9.20;79.60
83283;DHT22;73190;50.780;5.658;2023-12-20T11:15:56;9.20;79.30
83283;DHT22;73190;50.780;5.658;2023-12-20T11:18:30;9.20;80.00
83283;DHT22;73190;50.780;5.658;2023-12-20T11:21:05;9.00;80.20
83283;DHT22;73190;50.780;5.658;2023-12-20T11:23:29;9.20;80.30
83283;DHT22;73190;50.780;5.658;2023-12-20T11:25:57;9.20;79.50
83283;DHT22;73190;50.780;5.658;2023-12-20T11:28:24;9.10;79.10
83283;DHT22;73190;50.780;5.658;2023-12-20T11:30:52;9.10;79.90
83283;DHT22;73190;50.780;5.658;2023-12-20T11:33:23;9.00;79.70
83283;DHT22;73190;50.780;5.658;2023-12-20T11:35:50;8.90;81.40
83283;DHT22;73190;50.780;5.658;2023-12-20T11:38:17;9.20;80.80
83283;DHT22;73190;50.780;5.658;2023-12-20T11:40:43;9.30;79.20
83283;DHT22;73190;50.780;5.658;2023-12-20T11:43:10;9.30;79.30
83283;DHT22;73190;50.780;5.658;2023-12-20T11:45:37;9.20;79.60
83283;DHT22;73190;50.780;5.658;2023-12-20T11:48:04;9.20;79.50
83283;DHT22;73190;50.780;5.658;2023-12-20T11:50:32;9.10;80.30
83283;DHT22;73190;50.780;5.658;2023-12-20T11:52:59;9.10;80.50
83283;DHT22;73190;50.780;5.658;2023-12-20T11:55:26;9.00;80.90
83283;DHT22;73190;50.780;5.658;2023-12-20T11:57:53;9.20;81.10
83283;DHT22;73190;50.780;5.658;2023-12-20T12:00:20;9.20;80.40
83283;DHT22;73190;50.780;5.658;2023-12-20T12:02:56;9.00;81.20
83283;DHT22;73190;50.780;5.658;2023-12-20T12:05:23;9.20;80.90
83283;DHT22;73190;50.780;5.658;2023-12-20T12:07:50;9.20;80.50
83283;DHT22;73190;50.780;5.658;2023-12-20T12:10:17;9.30;80.70
83283;DHT22;73190;50.780;5.658;2023-12-20T12:12:44;9.20;79.40
83283;DHT22;73190;50.780;5.658;2023-12-20T12:15:11;9.00;81.20
83283;DHT22;73190;50.780;5.658;2023-12-20T12:17:38;8.90;82.10
83283;DHT22;73190;50.780;5.658;2023-12-20T12:20:05;9.10;81.70
83283;DHT22;73190;50.780;5.658;2023-12-20T12:22:32;9.10;81.60
83283;DHT22;73190;50.780;5.658;2023-12-20T12:25:08;9.20;81.90
83283;DHT22;73190;50.780;5.658;2023-12-20T12:27:28;9.20;80.70
83283;DHT22;73190;50.780;5.658;2023-12-20T12:30:02;9.20;81.20
83283;DHT22;73190;50.780;5.658;2023-12-20T12:32:29;9.10;82.40
83283;DHT22;73190;50.780;5.658;2023-12-20T12:34:56;9.00;82.70
83283;DHT22;73190;50.780;5.658;2023-12-20T12:37:23;8.90;83.00
83283;DHT22;73190;50.780;5.658;2023-12-20T12:39:53;8.90;82.90
83283;DHT22;73190;50.780;5.658;2023-12-20T12:42:20;8.90;83.70
83283;DHT22;73190;50.780;5.658;2023-12-20T12:44:48;8.90;83.80
83283;DHT22;73190;50.780;5.658;2023-12-20T12:47:14;9.00;83.60
83283;DHT22;73190;50.780;5.658;2023-12-20T12:49:41;9.00;83.50
83283;DHT22;73190;50.780;5.658;2023-12-20T12:52:08;9.10;83.40
83283;DHT22;73190;50.780;5.658;2023-12-20T12:54:35;9.10;83.40
83283;DHT22;73190;50.780;5.658;2023-12-20T12:57:02;9.10;83.20
83283;DHT22;73190;50.780;5.658;2023-12-20T12:59:29;9.20;82.70
83283;DHT22;73190;50.780;5.658;2023-12-20T13:01:56;9.10;82.10
83283;DHT22;73190;50.780;5.658;2023-12-20T13:04:23;9.10;82.90
83283;DHT22;73190;50.780;5.658;2023-12-20T13:06:50;9.20;83.60
83283;DHT22;73190;50.780;5.658;2023-12-20T13:09:17;9.10;84.30
83283;DHT22;73190;50.780;5.658;2023-12-20T13:11:45;9.20;84.60
83283;DHT22;73190;50.780;5.658;2023-12-20T13:14:12;9.30;84.30
83283;DHT22;73190;50.780;5.658;2023-12-20T13:16:41;9.10;84.80
83283;DHT22;73190;50.780;5.658;2023-12-20T13:19:08;9.20;84.90
83283;DHT22;73190;50.780;5.658;2023-12-20T13:21:35;9.30;84.80
83283;DHT22;73190;50.780;5.658;2023-12-20T13:24:02;9.40;84.20
83283;DHT22;73190;50.780;5.658;2023-12-20T13:26:29;9.30;83.90
83283;DHT22;73190;50.780;5.658;2023-12-20T13:28:56;9.40;83.90
83283;DHT22;73190;50.780;5.658;2023-12-20T13:31:23;9.30;84.30
83283;DHT22;73190;50.780;5.658;2023-12-20T13:33:50;9.40;83.50
83283;DHT22;73190;50.780;5.658;2023-12-20T13:36:18;9.30;84.40
83283;DHT22;73190;50.780;5.658;2023-12-20T13:38:45;9.30;83.30
83283;DHT22;73190;50.780;5.658;2023-12-20T13:41:12;9.20;84.50
83283;DHT22;73190;50.780;5.658;2023-12-20T13:43:38;9.20;84.20
83283;DHT22;73190;50.780;5.658;2023-12-20T13:46:05;9.30;83.90
83283;DHT22;73190;50.780;5.658;2023-12-20T13:48:32;9.30;83.20
83283;DHT22;73190;50.780;5.658;2023-12-20T13:50:59;9.30;83.80
83283;DHT22;73190;50.780;5.658;2023-12-20T13:53:26;9.30;83.90
83283;DHT22;73190;50.780;5.658;2023-12-20T13:55:54;9.40;83.80
83283;DHT22;73190;50.780;5.658;2023-12-20T13:58:21;9.50;83.50
83283;DHT22;73190;50.780;5.658;2023-12-20T14:00:48;9.50;82.90
83283;DHT22;73190;50.780;5.658;2023-12-20T14:03:14;9.40;83.40
83283;DHT22;73190;50.780;5.658;2023-12-20T14:05:41;9.40;83.70
83283;DHT22;73190;50.780;5.658;2023-12-20T14:08:08;9.40;83.60
83283;DHT22;73190;50.780;5.658;2023-12-20T14:10:36;9.40;84.40
83283;DHT22;73190;50.780;5.658;2023-12-20T14:13:04;9.40;83.90
83283;DHT22;73190;50.780;5.658;2023-12-20T14:15:31;9.40;83.60
83283;DHT22;73190;50.780;5.658;2023-12-20T14:18:00;9.40;84.00
83283;DHT22;73190;50.780;5.658;2023-12-20T14:20:27;9.40;83.50
83283;DHT22;73190;50.780;5.658;2023-12-20T14:22:55;9.50;83.50
83283;DHT22;73190;50.780;5.658;2023-12-20T14:25:22;9.30;84.30
83283;DHT22;73190;50.780;5.658;2023-12-20T14:27:49;9.30;85.30
83283;DHT22;73190;50.780;5.658;2023-12-20T14:30:16;9.20;85.60
83283;DHT22;73190;50.780;5.658;2023-12-20T14:32:43;9.20;85.70
83283;DHT22;73190;50.780;5.658;2023-12-20T14:35:09;9.20;85.70
83283;DHT22;73190;50.780;5.658;2023-12-20T14:37:36;9.30;85.10
83283;DHT22;73190;50.780;5.658;2023-12-20T14:40:06;9.20;85.90
83283;DHT22;73190;50.780;5.658;2023-12-20T14:42:34;9.20;85.80
83283;DHT22;73190;50.780;5.658;2023-12-20T14:45:01;9.30;85.90
83283;DHT22;73190;50.780;5.658;2023-12-20T14:47:28;9.20;86.30
83283;DHT22;73190;50.780;5.658;2023-12-20T14:49:55;9.20;86.00
83283;DHT22;73190;50.780;5.658;2023-12-20T14:52:22;9.10;86.60
83283;DHT22;73190;50.780;5.658;2023-12-20T14:54:51;9.20;86.30
83283;DHT22;73190;50.780;5.658;2023-12-20T14:57:18;9.30;85.40
83283;DHT22;73190;50.780;5.658;2023-12-20T14:59:45;9.40;85.10
83283;DHT22;73190;50.780;5.658;2023-12-20T15:02:12;9.30;85.30
83283;DHT22;73190;50.780;5.658;2023-12-20T15:04:39;9.10;86.10
83283;DHT22;73190;50.780;5.658;2023-12-20T15:07:06;9.20;85.80
83283;DHT22;73190;50.780;5.658;2023-12-20T15:09:33;9.40;84.70
83283;DHT22;73190;50.780;5.658;2023-12-20T15:12:00;9.40;84.50
83283;DHT22;73190;50.780;5.658;2023-12-20T15:14:27;9.40;84.70
83283;DHT22;73190;50.780;5.658;2023-12-20T15:16:59;9.50;84.50
83283;DHT22;73190;50.780;5.658;2023-12-20T15:19:22;9.30;85.40
83283;DHT22;73190;50.780;5.658;2023-12-20T15:21:49;9.30;85.40
83283;DHT22;73190;50.780;5.658;2023-12-20T15:24:16;9.20;86.00
83283;DHT22;73190;50.780;5.658;2023-12-20T15:26:46;9.20;85.80
83283;DHT22;73190;50.780;5.658;2023-12-20T15:29:13;9.20;86.00
83283;DHT22;73190;50.780;5.658;2023-12-20T15:31:44;9.10;86.70
83283;DHT22;73190;50.780;5.658;2023-12-20T15:34:11;9.20;86.10
83283;DHT22;73190;50.780;5.658;2023-12-20T15:36:38;9.20;86.00
83283;DHT22;73190;50.780;5.658;2023-12-20T15:39:05;9.20;85.90
83283;DHT22;73190;50.780;5.658;2023-12-20T15:41:34;9.20;86.40
83283;DHT22;73190;50.780;5.658;2023-12-20T15:44:01;9.20;86.30
83283;DHT22;73190;50.780;5.658;2023-12-20T15:46:28;9.20;86.00
83283;DHT22;73190;50.780;5.658;2023-12-20T15:48:55;9.30;85.50